sensor_id;sensor_type;location;lat;lon;timestamp;P1;durP1;ratioP1;P2;durP2;ratioP2
4704;SDS011;2366;51.332;6.610;2023-12-04T00:01:21;38.50;;;18.80;;
4704;SDS011;2366;51.332;6.610;2023-12-04T00:03:46;38.40;;;20.20;;
4704;SDS011;2366;51.332;6.610;2023-12-04T00:06:12;36.50;;;21.40;;
4704;SDS011;2366;51.332;6.610;2023-12-04T00:08:37;38.90;;;20.70;;
4704;SDS011;2366;51.332;6.610;2023-12-04T00:11:03;35.53;;;19.23;;
4704;SDS011;2366;51.332;6.610;2023-12-04T00:13:29;36.72;;;20.35;;
4704;SDS011;2366;51.332;6.610;2023-12-04T00:15:55;33.90;;;18.90;;
4704;SDS011;2366;51.332;6.610;2023-12-04T00:18:20;40.80;;;20.27;;
4704;SDS011;2366;51.332;6.610;2023-12-04T00:20:45;30.80;;;17.73;;
4704;SDS011;2366;51.332;6.610;2023-12-04T00:23:11;31.03;;;19.63;;
4704;SDS011;2366;51.332;6.610;2023-12-04T00:25:36;33.10;;;18.87;;
4704;SDS011;2366;51.332;6.610;2023-12-04T00:28:01;42.03;;;20.47;;
4704;SDS011;2366;51.332;6.610;2023-12-04T00:30:27;41.90;;;22.90;;
4704;SDS011;2366;51.332;6.610;2023-12-04T00:32:52;33.50;;;18.53;;
4704;SDS011;2366;51.332;6.610;2023-12-04T00:35:18;46.23;;;21.60;;
4704;SDS011;2366;51.332;6.610;2023-12-04T00:37:43;32.07;;;18.70;;
4704;SDS011;2366;51.332;6.610;2023-12-04T00:40:09;33.93;;;18.40;;
4704;SDS011;2366;51.332;6.610;2023-12-04T00:42:34;33.10;;;19.33;;
4704;SDS011;2366;51.332;6.610;2023-12-04T00:45:00;25.57;;;15.40;;
4704;SDS011;2366;51.332;6.610;2023-12-04T00:47:27;28.95;;;17.38;;
4704;SDS011;2366;51.332;6.610;2023-12-04T00:49:52;28.33;;;16.50;;
4704;SDS011;2366;51.332;6.610;2023-12-04T00:52:18;22.60;;;15.57;;
4704;SDS011;2366;51.332;6.610;2023-12-04T00:54:43;27.03;;;16.47;;
4704;SDS011;2366;51.332;6.610;2023-12-04T00:57:08;28.70;;;16.37;;
4704;SDS011;2366;51.332;6.610;2023-12-04T00:59:34;35.90;;;18.63;;
4704;SDS011;2366;51.332;6.610;2023-12-04T01:02:00;38.03;;;19.93;;
4704;SDS011;2366;51.332;6.610;2023-12-04T01:04:25;35.42;;;19.27;;
4704;SDS011;2366;51.332;6.610;2023-12-04T01:06:51;36.40;;;19.43;;
4704;SDS011;2366;51.332;6.610;2023-12-04T01:09:17;25.35;;;15.82;;
4704;SDS011;2366;51.332;6.610;2023-12-04T01:11:42;30.27;;;17.77;;
4704;SDS011;2366;51.332;6.610;2023-12-04T01:14:08;28.00;;;15.37;;
4704;SDS011;2366;51.332;6.610;2023-12-04T01:16:33;29.93;;;16.50;;
4704;SDS011;2366;51.332;6.610;2023-12-04T01:18:58;25.27;;;15.33;;
4704;SDS011;2366;51.332;6.610;2023-12-04T01:21:24;26.00;;;14.40;;
4704;SDS011;2366;51.332;6.610;2023-12-04T01:23:49;23.00;;;14.47;;
4704;SDS011;2366;51.332;6.610;2023-12-04T01:26:15;27.60;;;16.03;;
4704;SDS011;2366;51.332;6.610;2023-12-04T01:28:40;23.53;;;14.40;;
4704;SDS011;2366;51.332;6.610;2023-12-04T01:31:05;22.77;;;15.77;;
4704;SDS011;2366;51.332;6.610;2023-12-04T01:33:31;20.53;;;13.50;;
4704;SDS011;2366;51.332;6.610;2023-12-04T01:35:56;23.10;;;14.33;;
4704;SDS011;2366;51.332;6.610;2023-12-04T01:38:22;26.70;;;15.00;;
4704;SDS011;2366;51.332;6.610;2023-12-04T01:40:47;21.93;;;14.67;;
4704;SDS011;2366;51.332;6.610;2023-12-04T01:43:12;25.90;;;15.60;;
4704;SDS011;2366;51.332;6.610;2023-12-04T01:45:38;23.27;;;13.90;;
4704;SDS011;2366;51.332;6.610;2023-12-04T01:48:03;21.60;;;14.53;;
4704;SDS011;2366;51.332;6.610;2023-12-04T01:50:31;23.42;;;14.35;;
4704;SDS011;2366;51.332;6.610;2023-12-04T01:52:58;22.30;;;13.77;;
4704;SDS011;2366;51.332;6.610;2023-12-04T01:55:23;34.27;;;17.60;;
4704;SDS011;2366;51.332;6.610;2023-12-04T01:57:48;22.37;;;15.00;;
4704;SDS011;2366;51.332;6.610;2023-12-04T02:00:14;23.57;;;13.60;;
4704;SDS011;2366;51.332;6.610;2023-12-04T02:02:40;20.07;;;13.70;;
4704;SDS011;2366;51.332;6.610;2023-12-04T02:05:07;19.38;;;13.00;;
4704;SDS011;2366;51.332;6.610;2023-12-04T02:07:34;27.02;;;14.60;;
4704;SDS011;2366;51.332;6.610;2023-12-04T02:10:02;24.92;;;14.85;;
4704;SDS011;2366;51.332;6.610;2023-12-04T02:12:27;20.00;;;14.15;;
4704;SDS011;2366;51.332;6.610;2023-12-04T02:14:53;22.13;;;13.53;;
4704;SDS011;2366;51.332;6.610;2023-12-04T02:17:18;24.47;;;14.07;;
4704;SDS011;2366;51.332;6.610;2023-12-04T02:19:45;20.80;;;13.35;;
4704;SDS011;2366;51.332;6.610;2023-12-04T02:22:11;18.23;;;12.60;;
4704;SDS011;2366;51.332;6.610;2023-12-04T02:24:36;20.70;;;13.20;;
4704;SDS011;2366;51.332;6.610;2023-12-04T02:27:19;19.87;;;12.77;;
4704;SDS011;2366;51.332;6.610;2023-12-04T02:29:51;16.75;;;11.88;;
4704;SDS011;2366;51.332;6.610;2023-12-04T02:32:22;22.05;;;12.23;;
4704;SDS011;2366;51.332;6.610;2023-12-04T02:34:49;19.95;;;13.23;;
4704;SDS011;2366;51.332;6.610;2023-12-04T02:37:17;17.45;;;12.38;;
4704;SDS011;2366;51.332;6.610;2023-12-04T02:39:44;20.17;;;12.70;;
4704;SDS011;2366;51.332;6.610;2023-12-04T02:42:10;18.50;;;12.03;;
4704;SDS011;2366;51.332;6.610;2023-12-04T02:44:38;20.60;;;12.00;;
4704;SDS011;2366;51.332;6.610;2023-12-04T02:47:04;20.60;;;12.60;;
4704;SDS011;2366;51.332;6.610;2023-12-04T02:49:29;19.53;;;12.33;;
4704;SDS011;2366;51.332;6.610;2023-12-04T02:51:54;17.60;;;11.67;;
4704;SDS011;2366;51.332;6.610;2023-12-04T02:54:20;17.20;;;12.43;;
4704;SDS011;2366;51.332;6.610;2023-12-04T02:56:45;19.17;;;10.77;;
4704;SDS011;2366;51.332;6.610;2023-12-04T02:59:11;18.03;;;12.07;;
4704;SDS011;2366;51.332;6.610;2023-12-04T03:01:36;15.23;;;9.50;;
4704;SDS011;2366;51.332;6.610;2023-12-04T03:04:01;17.37;;;10.67;;
4704;SDS011;2366;51.332;6.610;2023-12-04T03:06:27;17.87;;;10.70;;
4704;SDS011;2366;51.332;6.610;2023-12-04T03:08:52;17.23;;;10.37;;
4704;SDS011;2366;51.332;6.610;2023-12-04T03:11:17;13.80;;;10.03;;
4704;SDS011;2366;51.332;6.610;2023-12-04T03:13:43;17.27;;;10.27;;
4704;SDS011;2366;51.332;6.610;2023-12-04T03:16:15;12.87;;;9.20;;
4704;SDS011;2366;51.332;6.610;2023-12-04T03:18:42;16.95;;;9.85;;
4704;SDS011;2366;51.332;6.610;2023-12-04T03:21:07;16.20;;;10.10;;
4704;SDS011;2366;51.332;6.610;2023-12-04T03:23:32;15.57;;;10.23;;
4704;SDS011;2366;51.332;6.610;2023-12-04T03:25:58;16.57;;;10.37;;
4704;SDS011;2366;51.332;6.610;2023-12-04T03:28:23;14.87;;;10.20;;
4704;SDS011;2366;51.332;6.610;2023-12-04T03:30:48;12.83;;;9.40;;
4704;SDS011;2366;51.332;6.610;2023-12-04T03:33:14;14.80;;;10.17;;
4704;SDS011;2366;51.332;6.610;2023-12-04T03:35:39;13.67;;;9.57;;
4704;SDS011;2366;51.332;6.610;2023-12-04T03:38:05;17.40;;;10.27;;
4704;SDS011;2366;51.332;6.610;2023-12-04T03:40:30;16.33;;;10.60;;
4704;SDS011;2366;51.332;6.610;2023-12-04T03:42:56;15.27;;;11.18;;
4704;SDS011;2366;51.332;6.610;2023-12-04T03:45:22;12.97;;;9.97;;
4704;SDS011;2366;51.332;6.610;2023-12-04T03:47:47;11.73;;;8.97;;
4704;SDS011;2366;51.332;6.610;2023-12-04T03:50:12;14.50;;;9.53;;
4704;SDS011;2366;51.332;6.610;2023-12-04T03:52:38;12.60;;;10.30;;
4704;SDS011;2366;51.332;6.610;2023-12-04T03:55:03;14.27;;;10.67;;
4704;SDS011;2366;51.332;6.610;2023-12-04T03:57:29;13.85;;;9.18;;
4704;SDS011;2366;51.332;6.610;2023-12-04T03:59:55;13.40;;;9.53;;
4704;SDS011;2366;51.332;6.610;2023-12-04T04:02:20;12.00;;;8.90;;
4704;SDS011;2366;51.332;6.610;2023-12-04T04:04:45;17.83;;;9.50;;
4704;SDS011;2366;51.332;6.610;2023-12-04T04:07:11;12.00;;;8.63;;
4704;SDS011;2366;51.332;6.610;2023-12-04T04:09:36;11.57;;;8.57;;
4704;SDS011;2366;51.332;6.610;2023-12-04T04:12:02;16.27;;;9.70;;
4704;SDS011;2366;51.332;6.610;2023-12-04T04:14:28;15.17;;;7.93;;
4704;SDS011;2366;51.332;6.610;2023-12-04T04:16:53;14.83;;;10.00;;
4704;SDS011;2366;51.332;6.610;2023-12-04T04:19:18;13.63;;;8.90;;
4704;SDS011;2366;51.332;6.610;2023-12-04T04:21:44;14.07;;;9.47;;
4704;SDS011;2366;51.332;6.610;2023-12-04T04:24:09;17.17;;;9.23;;
4704;SDS011;2366;51.332;6.610;2023-12-04T04:26:35;18.40;;;9.07;;
4704;SDS011;2366;51.332;6.610;2023-12-04T04:29:00;17.53;;;8.23;;
4704;SDS011;2366;51.332;6.610;2023-12-04T04:31:26;10.67;;;7.60;;
4704;SDS011;2366;51.332;6.610;2023-12-04T04:33:51;15.67;;;9.60;;
4704;SDS011;2366;51.332;6.610;2023-12-04T04:36:17;13.50;;;8.80;;
4704;SDS011;2366;51.332;6.610;2023-12-04T04:38:42;11.20;;;8.77;;
4704;SDS011;2366;51.332;6.610;2023-12-04T04:41:12;13.30;;;9.13;;
4704;SDS011;2366;51.332;6.610;2023-12-04T04:43:39;15.20;;;9.30;;
4704;SDS011;2366;51.332;6.610;2023-12-04T04:46:04;12.33;;;9.17;;
4704;SDS011;2366;51.332;6.610;2023-12-04T04:48:30;15.43;;;8.97;;
4704;SDS011;2366;51.332;6.610;2023-12-04T04:50:55;12.30;;;9.53;;
4704;SDS011;2366;51.332;6.610;2023-12-04T04:53:20;12.90;;;9.80;;
4704;SDS011;2366;51.332;6.610;2023-12-04T04:55:46;11.13;;;8.90;;
4704;SDS011;2366;51.332;6.610;2023-12-04T04:58:11;13.07;;;8.57;;
4704;SDS011;2366;51.332;6.610;2023-12-04T05:00:37;10.77;;;8.20;;
4704;SDS011;2366;51.332;6.610;2023-12-04T05:03:02;17.87;;;7.83;;
4704;SDS011;2366;51.332;6.610;2023-12-04T05:05:27;12.07;;;8.40;;
4704;SDS011;2366;51.332;6.610;2023-12-04T05:07:53;17.10;;;8.90;;
4704;SDS011;2366;51.332;6.610;2023-12-04T05:10:18;9.83;;;8.30;;
4704;SDS011;2366;51.332;6.610;2023-12-04T05:12:43;12.87;;;9.00;;
4704;SDS011;2366;51.332;6.610;2023-12-04T05:15:09;12.17;;;7.80;;
4704;SDS011;2366;51.332;6.610;2023-12-04T05:17:34;10.30;;;7.30;;
4704;SDS011;2366;51.332;6.610;2023-12-04T05:20:00;10.57;;;7.60;;
4704;SDS011;2366;51.332;6.610;2023-12-04T05:22:25;12.90;;;8.40;;
4704;SDS011;2366;51.332;6.610;2023-12-04T05:24:50;14.07;;;8.87;;
4704;SDS011;2366;51.332;6.610;2023-12-04T05:27:16;19.90;;;10.53;;
4704;SDS011;2366;51.332;6.610;2023-12-04T05:29:41;11.47;;;7.40;;
4704;SDS011;2366;51.332;6.610;2023-12-04T05:32:06;14.50;;;9.07;;
4704;SDS011;2366;51.332;6.610;2023-12-04T05:34:32;12.80;;;8.20;;
4704;SDS011;2366;51.332;6.610;2023-12-04T05:36:57;12.40;;;9.00;;
4704;SDS011;2366;51.332;6.610;2023-12-04T05:39:22;13.97;;;8.17;;
4704;SDS011;2366;51.332;6.610;2023-12-04T05:41:48;13.00;;;9.53;;
4704;SDS011;2366;51.332;6.610;2023-12-04T05:44:13;11.63;;;9.20;;
4704;SDS011;2366;51.332;6.610;2023-12-04T05:46:39;14.90;;;10.13;;
4704;SDS011;2366;51.332;6.610;2023-12-04T05:49:04;10.63;;;8.63;;
4704;SDS011;2366;51.332;6.610;2023-12-04T05:51:30;12.43;;;8.30;;
4704;SDS011;2366;51.332;6.610;2023-12-04T05:53:55;13.67;;;9.97;;
4704;SDS011;2366;51.332;6.610;2023-12-04T05:56:21;15.87;;;10.80;;
4704;SDS011;2366;51.332;6.610;2023-12-04T05:58:46;15.07;;;9.90;;
4704;SDS011;2366;51.332;6.610;2023-12-04T06:01:11;13.83;;;9.27;;
4704;SDS011;2366;51.332;6.610;2023-12-04T06:03:37;16.03;;;9.80;;
4704;SDS011;2366;51.332;6.610;2023-12-04T06:06:02;13.40;;;9.80;;
4704;SDS011;2366;51.332;6.610;2023-12-04T06:08:28;17.50;;;10.17;;
4704;SDS011;2366;51.332;6.610;2023-12-04T06:10:53;10.97;;;9.03;;
4704;SDS011;2366;51.332;6.610;2023-12-04T06:13:18;20.00;;;11.23;;
4704;SDS011;2366;51.332;6.610;2023-12-04T06:15:44;14.93;;;10.60;;
4704;SDS011;2366;51.332;6.610;2023-12-04T06:18:09;14.10;;;9.40;;
4704;SDS011;2366;51.332;6.610;2023-12-04T06:20:35;16.87;;;10.60;;
4704;SDS011;2366;51.332;6.610;2023-12-04T06:23:00;16.10;;;11.03;;
4704;SDS011;2366;51.332;6.610;2023-12-04T06:25:26;15.17;;;10.70;;
4704;SDS011;2366;51.332;6.610;2023-12-04T06:27:51;18.87;;;11.07;;
4704;SDS011;2366;51.332;6.610;2023-12-04T06:30:17;14.97;;;9.87;;
4704;SDS011;2366;51.332;6.610;2023-12-04T06:32:43;15.93;;;10.68;;
4704;SDS011;2366;51.332;6.610;2023-12-04T06:35:09;12.20;;;8.73;;
4704;SDS011;2366;51.332;6.610;2023-12-04T06:37:36;17.20;;;10.80;;
4704;SDS011;2366;51.332;6.610;2023-12-04T06:40:04;18.63;;;12.13;;
4704;SDS011;2366;51.332;6.610;2023-12-04T06:42:33;18.13;;;10.57;;
4704;SDS011;2366;51.332;6.610;2023-12-04T06:45:00;14.85;;;10.20;;
4704;SDS011;2366;51.332;6.610;2023-12-04T06:47:25;13.10;;;10.13;;
4704;SDS011;2366;51.332;6.610;2023-12-04T06:49:51;14.73;;;9.77;;
4704;SDS011;2366;51.332;6.610;2023-12-04T06:52:16;16.13;;;10.87;;
4704;SDS011;2366;51.332;6.610;2023-12-04T06:54:41;14.97;;;10.17;;
4704;SDS011;2366;51.332;6.610;2023-12-04T06:57:07;17.77;;;10.97;;
4704;SDS011;2366;51.332;6.610;2023-12-04T06:59:33;14.67;;;10.33;;
4704;SDS011;2366;51.332;6.610;2023-12-04T07:01:58;15.30;;;10.73;;
4704;SDS011;2366;51.332;6.610;2023-12-04T07:04:23;13.77;;;10.43;;
4704;SDS011;2366;51.332;6.610;2023-12-04T07:06:49;15.57;;;11.17;;
4704;SDS011;2366;51.332;6.610;2023-12-04T07:09:14;14.27;;;10.10;;
4704;SDS011;2366;51.332;6.610;2023-12-04T07:11:41;14.80;;;10.30;;
4704;SDS011;2366;51.332;6.610;2023-12-04T07:14:07;16.60;;;11.37;;
4704;SDS011;2366;51.332;6.610;2023-12-04T07:16:38;20.93;;;12.57;;
4704;SDS011;2366;51.332;6.610;2023-12-04T07:19:07;18.80;;;13.27;;
4704;SDS011;2366;51.332;6.610;2023-12-04T07:21:34;18.73;;;12.95;;
4704;SDS011;2366;51.332;6.610;2023-12-04T07:23:59;16.50;;;10.27;;
4704;SDS011;2366;51.332;6.610;2023-12-04T07:26:24;16.20;;;11.17;;
4704;SDS011;2366;51.332;6.610;2023-12-04T07:28:50;18.80;;;12.63;;
4704;SDS011;2366;51.332;6.610;2023-12-04T07:31:15;15.03;;;10.63;;
4704;SDS011;2366;51.332;6.610;2023-12-04T07:33:40;14.23;;;11.03;;
4704;SDS011;2366;51.332;6.610;2023-12-04T07:36:06;17.20;;;11.13;;
4704;SDS011;2366;51.332;6.610;2023-12-04T07:38:32;18.25;;;11.70;;
4704;SDS011;2366;51.332;6.610;2023-12-04T07:40:57;17.10;;;12.43;;
4704;SDS011;2366;51.332;6.610;2023-12-04T07:43:23;17.93;;;11.90;;
4704;SDS011;2366;51.332;6.610;2023-12-04T07:45:48;17.03;;;12.43;;
4704;SDS011;2366;51.332;6.610;2023-12-04T07:48:13;15.67;;;12.20;;
4704;SDS011;2366;51.332;6.610;2023-12-04T07:50:39;15.57;;;11.33;;
4704;SDS011;2366;51.332;6.610;2023-12-04T07:53:05;18.27;;;11.37;;
4704;SDS011;2366;51.332;6.610;2023-12-04T07:55:30;13.98;;;10.85;;
4704;SDS011;2366;51.332;6.610;2023-12-04T07:57:56;14.87;;;11.30;;
4704;SDS011;2366;51.332;6.610;2023-12-04T08:00:21;16.10;;;10.20;;
4704;SDS011;2366;51.332;6.610;2023-12-04T08:02:47;16.52;;;11.35;;
4704;SDS011;2366;51.332;6.610;2023-12-04T08:05:14;13.20;;;9.90;;
4704;SDS011;2366;51.332;6.610;2023-12-04T08:07:39;16.33;;;11.30;;
4704;SDS011;2366;51.332;6.610;2023-12-04T08:10:05;16.23;;;11.03;;
4704;SDS011;2366;51.332;6.610;2023-12-04T08:12:32;16.13;;;11.13;;
4704;SDS011;2366;51.332;6.610;2023-12-04T08:14:58;17.60;;;11.18;;
4704;SDS011;2366;51.332;6.610;2023-12-04T08:17:24;15.17;;;9.07;;
4704;SDS011;2366;51.332;6.610;2023-12-04T08:19:49;18.07;;;10.47;;
4704;SDS011;2366;51.332;6.610;2023-12-04T08:22:15;12.70;;;9.23;;
4704;SDS011;2366;51.332;6.610;2023-12-04T08:24:40;15.50;;;10.30;;
4704;SDS011;2366;51.332;6.610;2023-12-04T08:27:05;22.83;;;9.17;;
4704;SDS011;2366;51.332;6.610;2023-12-04T08:29:31;14.53;;;10.60;;
4704;SDS011;2366;51.332;6.610;2023-12-04T08:31:56;15.80;;;9.60;;
4704;SDS011;2366;51.332;6.610;2023-12-04T08:34:22;11.10;;;9.00;;
4704;SDS011;2366;51.332;6.610;2023-12-04T08:36:47;12.70;;;8.90;;
4704;SDS011;2366;51.332;6.610;2023-12-04T08:39:13;13.77;;;10.63;;
4704;SDS011;2366;51.332;6.610;2023-12-04T08:41:38;15.97;;;9.30;;
4704;SDS011;2366;51.332;6.610;2023-12-04T08:44:04;9.77;;;6.67;;
4704;SDS011;2366;51.332;6.610;2023-12-04T08:46:29;9.97;;;8.07;;
4704;SDS011;2366;51.332;6.610;2023-12-04T08:48:54;13.00;;;8.93;;
4704;SDS011;2366;51.332;6.610;2023-12-04T08:51:20;11.60;;;8.87;;
4704;SDS011;2366;51.332;6.610;2023-12-04T08:53:45;11.90;;;8.63;;
4704;SDS011;2366;51.332;6.610;2023-12-04T08:56:10;13.87;;;8.30;;
4704;SDS011;2366;51.332;6.610;2023-12-04T08:58:36;11.47;;;9.00;;
4704;SDS011;2366;51.332;6.610;2023-12-04T09:01:02;13.73;;;9.03;;
4704;SDS011;2366;51.332;6.610;2023-12-04T09:03:28;11.45;;;8.20;;
4704;SDS011;2366;51.332;6.610;2023-12-04T09:05:56;10.40;;;8.15;;
4704;SDS011;2366;51.332;6.610;2023-12-04T09:08:22;11.20;;;7.47;;
4704;SDS011;2366;51.332;6.610;2023-12-04T09:10:48;12.20;;;7.68;;
4704;SDS011;2366;51.332;6.610;2023-12-04T09:13:14;12.00;;;9.20;;
4704;SDS011;2366;51.332;6.610;2023-12-04T09:15:40;15.85;;;8.77;;
4704;SDS011;2366;51.332;6.610;2023-12-04T09:18:05;9.83;;;7.57;;
4704;SDS011;2366;51.332;6.610;2023-12-04T09:20:31;10.27;;;7.50;;
4704;SDS011;2366;51.332;6.610;2023-12-04T09:22:57;10.50;;;8.30;;
4704;SDS011;2366;51.332;6.610;2023-12-04T09:25:23;11.27;;;7.93;;
4704;SDS011;2366;51.332;6.610;2023-12-04T09:27:48;10.13;;;7.30;;
4704;SDS011;2366;51.332;6.610;2023-12-04T09:30:13;8.67;;;6.70;;
4704;SDS011;2366;51.332;6.610;2023-12-04T09:32:39;12.40;;;7.77;;
4704;SDS011;2366;51.332;6.610;2023-12-04T09:35:05;11.35;;;7.63;;
4704;SDS011;2366;51.332;6.610;2023-12-04T09:37:30;8.70;;;7.43;;
4704;SDS011;2366;51.332;6.610;2023-12-04T09:39:56;23.63;;;6.60;;
4704;SDS011;2366;51.332;6.610;2023-12-04T09:42:21;9.47;;;7.50;;
4704;SDS011;2366;51.332;6.610;2023-12-04T09:44:48;8.55;;;6.78;;
4704;SDS011;2366;51.332;6.610;2023-12-04T09:47:20;7.25;;;6.03;;
4704;SDS011;2366;51.332;6.610;2023-12-04T09:49:46;8.73;;;7.45;;
4704;SDS011;2366;51.332;6.610;2023-12-04T09:52:14;11.15;;;8.00;;
4704;SDS011;2366;51.332;6.610;2023-12-04T09:54:40;9.90;;;6.20;;
4704;SDS011;2366;51.332;6.610;2023-12-04T09:57:07;9.50;;;6.45;;
4704;SDS011;2366;51.332;6.610;2023-12-04T09:59:33;11.82;;;8.05;;
4704;SDS011;2366;51.332;6.610;2023-12-04T10:02:00;10.60;;;8.50;;
4704;SDS011;2366;51.332;6.610;2023-12-04T10:04:26;9.03;;;7.07;;
4704;SDS011;2366;51.332;6.610;2023-12-04T10:06:51;11.97;;;8.47;;
4704;SDS011;2366;51.332;6.610;2023-12-04T10:09:20;9.63;;;7.13;;
4704;SDS011;2366;51.332;6.610;2023-12-04T10:11:47;11.43;;;8.35;;
4704;SDS011;2366;51.332;6.610;2023-12-04T10:14:16;10.77;;;8.25;;
4704;SDS011;2366;51.332;6.610;2023-12-04T10:16:45;8.82;;;7.38;;
4704;SDS011;2366;51.332;6.610;2023-12-04T10:21:41;8.90;;;7.60;;
4704;SDS011;2366;51.332;6.610;2023-12-04T10:24:07;9.63;;;7.73;;
4704;SDS011;2366;51.332;6.610;2023-12-04T10:26:33;9.85;;;7.65;;
4704;SDS011;2366;51.332;6.610;2023-12-04T10:28:59;12.17;;;7.30;;
4704;SDS011;2366;51.332;6.610;2023-12-04T10:31:26;12.30;;;7.47;;
4704;SDS011;2366;51.332;6.610;2023-12-04T10:33:51;12.53;;;8.07;;
4704;SDS011;2366;51.332;6.610;2023-12-04T10:36:17;9.60;;;7.80;;
4704;SDS011;2366;51.332;6.610;2023-12-04T10:38:44;11.45;;;7.95;;
4704;SDS011;2366;51.332;6.610;2023-12-04T10:41:12;11.03;;;7.40;;
4704;SDS011;2366;51.332;6.610;2023-12-04T10:43:46;10.57;;;7.63;;
4704;SDS011;2366;51.332;6.610;2023-12-04T10:46:12;12.05;;;7.75;;
4704;SDS011;2366;51.332;6.610;2023-12-04T10:48:41;10.90;;;7.75;;
4704;SDS011;2366;51.332;6.610;2023-12-04T10:51:08;13.52;;;7.70;;
4704;SDS011;2366;51.332;6.610;2023-12-04T10:53:34;8.88;;;6.80;;
4704;SDS011;2366;51.332;6.610;2023-12-04T10:56:00;11.00;;;7.87;;
4704;SDS011;2366;51.332;6.610;2023-12-04T10:58:27;12.10;;;8.75;;
4704;SDS011;2366;51.332;6.610;2023-12-04T11:00:54;9.40;;;6.55;;
4704;SDS011;2366;51.332;6.610;2023-12-04T11:03:25;12.10;;;8.50;;
4704;SDS011;2366;51.332;6.610;2023-12-04T11:06:01;13.77;;;8.45;;
4704;SDS011;2366;51.332;6.610;2023-12-04T11:08:29;11.60;;;8.23;;
4704;SDS011;2366;51.332;6.610;2023-12-04T11:10:59;12.18;;;7.80;;
4704;SDS011;2366;51.332;6.610;2023-12-04T11:13:34;11.18;;;8.63;;
4704;SDS011;2366;51.332;6.610;2023-12-04T11:16:05;12.20;;;8.70;;
4704;SDS011;2366;51.332;6.610;2023-12-04T11:18:38;10.80;;;8.43;;
4704;SDS011;2366;51.332;6.610;2023-12-04T11:21:08;9.63;;;7.80;;
4704;SDS011;2366;51.332;6.610;2023-12-04T11:23:37;13.77;;;8.25;;
4704;SDS011;2366;51.332;6.610;2023-12-04T11:26:03;13.75;;;8.98;;
4704;SDS011;2366;51.332;6.610;2023-12-04T11:28:30;12.40;;;9.20;;
4704;SDS011;2366;51.332;6.610;2023-12-04T11:30:57;13.30;;;9.25;;
4704;SDS011;2366;51.332;6.610;2023-12-04T11:33:23;11.93;;;8.95;;
4704;SDS011;2366;51.332;6.610;2023-12-04T11:35:49;13.70;;;9.45;;
4704;SDS011;2366;51.332;6.610;2023-12-04T11:38:16;18.98;;;9.93;;
4704;SDS011;2366;51.332;6.610;2023-12-04T11:40:42;14.27;;;9.68;;
4704;SDS011;2366;51.332;6.610;2023-12-04T11:43:27;13.03;;;9.00;;
4704;SDS011;2366;51.332;6.610;2023-12-04T11:46:06;18.02;;;10.60;;
4704;SDS011;2366;51.332;6.610;2023-12-04T11:48:33;12.45;;;10.18;;
4704;SDS011;2366;51.332;6.610;2023-12-04T11:50:59;15.10;;;9.87;;
4704;SDS011;2366;51.332;6.610;2023-12-04T11:53:25;12.50;;;10.35;;
4704;SDS011;2366;51.332;6.610;2023-12-04T11:55:51;17.83;;;10.17;;
4704;SDS011;2366;51.332;6.610;2023-12-04T11:58:22;15.85;;;9.88;;
4704;SDS011;2366;51.332;6.610;2023-12-04T12:00:47;12.37;;;9.90;;
4704;SDS011;2366;51.332;6.610;2023-12-04T12:03:14;17.08;;;10.38;;
4704;SDS011;2366;51.332;6.610;2023-12-04T12:05:40;12.88;;;10.50;;
4704;SDS011;2366;51.332;6.610;2023-12-04T12:08:06;13.60;;;10.38;;
4704;SDS011;2366;51.332;6.610;2023-12-04T12:10:33;12.70;;;10.38;;
4704;SDS011;2366;51.332;6.610;2023-12-04T12:12:59;13.63;;;9.90;;
4704;SDS011;2366;51.332;6.610;2023-12-04T12:15:26;15.45;;;10.77;;
4704;SDS011;2366;51.332;6.610;2023-12-04T12:17:52;11.68;;;9.52;;
4704;SDS011;2366;51.332;6.610;2023-12-04T12:20:18;17.40;;;10.98;;
4704;SDS011;2366;51.332;6.610;2023-12-04T12:22:45;13.30;;;9.40;;
4704;SDS011;2366;51.332;6.610;2023-12-04T12:25:12;18.52;;;13.80;;
4704;SDS011;2366;51.332;6.610;2023-12-04T12:27:38;16.67;;;12.50;;
4704;SDS011;2366;51.332;6.610;2023-12-04T12:30:04;14.50;;;10.40;;
4704;SDS011;2366;51.332;6.610;2023-12-04T12:32:31;15.38;;;10.30;;
4704;SDS011;2366;51.332;6.610;2023-12-04T12:34:57;14.93;;;10.05;;
4704;SDS011;2366;51.332;6.610;2023-12-04T12:37:22;13.93;;;9.87;;
4704;SDS011;2366;51.332;6.610;2023-12-04T12:39:48;13.53;;;10.37;;
4704;SDS011;2366;51.332;6.610;2023-12-04T12:42:25;18.30;;;11.13;;
4704;SDS011;2366;51.332;6.610;2023-12-04T12:44:54;14.95;;;9.68;;
4704;SDS011;2366;51.332;6.610;2023-12-04T12:47:21;16.05;;;12.27;;
4704;SDS011;2366;51.332;6.610;2023-12-04T12:49:47;16.77;;;11.30;;
4704;SDS011;2366;51.332;6.610;2023-12-04T12:52:12;18.10;;;11.27;;
4704;SDS011;2366;51.332;6.610;2023-12-04T12:54:42;13.50;;;10.18;;
4704;SDS011;2366;51.332;6.610;2023-12-04T12:57:09;13.77;;;10.32;;
4704;SDS011;2366;51.332;6.610;2023-12-04T12:59:36;17.90;;;10.32;;
4704;SDS011;2366;51.332;6.610;2023-12-04T13:02:04;13.95;;;10.40;;
4704;SDS011;2366;51.332;6.610;2023-12-04T13:04:36;15.05;;;9.05;;
4704;SDS011;2366;51.332;6.610;2023-12-04T13:07:02;15.88;;;10.00;;
4704;SDS011;2366;51.332;6.610;2023-12-04T13:09:28;13.85;;;10.55;;
4704;SDS011;2366;51.332;6.610;2023-12-04T13:11:54;13.30;;;9.50;;
4704;SDS011;2366;51.332;6.610;2023-12-04T13:14:20;14.23;;;9.87;;
4704;SDS011;2366;51.332;6.610;2023-12-04T13:16:45;15.00;;;11.97;;
4704;SDS011;2366;51.332;6.610;2023-12-04T13:19:11;17.83;;;11.17;;
4704;SDS011;2366;51.332;6.610;2023-12-04T13:21:36;17.40;;;10.70;;
4704;SDS011;2366;51.332;6.610;2023-12-04T13:24:02;11.75;;;8.88;;
4704;SDS011;2366;51.332;6.610;2023-12-04T13:26:32;19.15;;;9.85;;
4704;SDS011;2366;51.332;6.610;2023-12-04T13:28:58;16.45;;;10.77;;
4704;SDS011;2366;51.332;6.610;2023-12-04T13:31:24;15.33;;;11.80;;
4704;SDS011;2366;51.332;6.610;2023-12-04T13:33:49;11.90;;;10.10;;
4704;SDS011;2366;51.332;6.610;2023-12-04T13:36:15;14.20;;;9.70;;
4704;SDS011;2366;51.332;6.610;2023-12-04T13:38:40;13.57;;;9.27;;
4704;SDS011;2366;51.332;6.610;2023-12-04T13:41:05;15.87;;;10.57;;
4704;SDS011;2366;51.332;6.610;2023-12-04T13:43:53;12.88;;;9.65;;
4704;SDS011;2366;51.332;6.610;2023-12-04T13:46:20;13.57;;;9.70;;
4704;SDS011;2366;51.332;6.610;2023-12-04T13:48:45;11.20;;;8.53;;
4704;SDS011;2366;51.332;6.610;2023-12-04T13:51:11;13.07;;;9.20;;
4704;SDS011;2366;51.332;6.610;2023-12-04T13:53:38;13.88;;;9.35;;
4704;SDS011;2366;51.332;6.610;2023-12-04T13:56:09;12.80;;;8.80;;
4704;SDS011;2366;51.332;6.610;2023-12-04T13:58:55;13.93;;;8.32;;
4704;SDS011;2366;51.332;6.610;2023-12-04T14:01:23;15.05;;;9.93;;
4704;SDS011;2366;51.332;6.610;2023-12-04T14:03:53;27.58;;;8.93;;
4704;SDS011;2366;51.332;6.610;2023-12-04T14:06:21;12.02;;;8.32;;
4704;SDS011;2366;51.332;6.610;2023-12-04T14:08:46;12.47;;;9.20;;
4704;SDS011;2366;51.332;6.610;2023-12-04T14:11:12;10.47;;;7.77;;
4704;SDS011;2366;51.332;6.610;2023-12-04T14:13:39;15.93;;;8.55;;
4704;SDS011;2366;51.332;6.610;2023-12-04T14:16:05;11.68;;;8.57;;
4704;SDS011;2366;51.332;6.610;2023-12-04T14:18:31;12.63;;;8.53;;
4704;SDS011;2366;51.332;6.610;2023-12-04T14:20:56;11.50;;;9.00;;
4704;SDS011;2366;51.332;6.610;2023-12-04T14:23:22;12.67;;;8.97;;
4704;SDS011;2366;51.332;6.610;2023-12-04T14:25:48;11.73;;;7.72;;
4704;SDS011;2366;51.332;6.610;2023-12-04T14:28:14;12.90;;;9.13;;
4704;SDS011;2366;51.332;6.610;2023-12-04T14:30:39;18.10;;;8.63;;
4704;SDS011;2366;51.332;6.610;2023-12-04T14:33:05;11.27;;;7.83;;
4704;SDS011;2366;51.332;6.610;2023-12-04T14:35:31;17.05;;;10.18;;
4704;SDS011;2366;51.332;6.610;2023-12-04T14:37:56;11.07;;;7.87;;
4704;SDS011;2366;51.332;6.610;2023-12-04T14:40:22;9.80;;;7.33;;
4704;SDS011;2366;51.332;6.610;2023-12-04T14:42:48;9.75;;;7.47;;
4704;SDS011;2366;51.332;6.610;2023-12-04T14:45:14;12.10;;;9.20;;
4704;SDS011;2366;51.332;6.610;2023-12-04T14:47:41;12.98;;;7.10;;
4704;SDS011;2366;51.332;6.610;2023-12-04T14:50:07;10.25;;;7.22;;
4704;SDS011;2366;51.332;6.610;2023-12-04T14:52:33;9.05;;;6.55;;